ADDS METAR Data INFO
IDs: Format: Raw Decoded Include TAF

Data at: 0428 UTC 21 Nov 2017

KINJ 210415Z AUTO 15011KT 10SM CLR 13/03 A2996 RMK AO2 T01310031
KINJ 210355Z AUTO 15009KT 10SM CLR 13/03 A2996 RMK AO2 T01330027
KINJ 210335Z AUTO 16010KT 10SM CLR 14/03 A2997 RMK AO2 T01360026
KINJ 210315Z AUTO 15009KT 10SM CLR 13/03 A2996 RMK AO2 T01290025
KINJ 210255Z AUTO 15008KT 10SM CLR 13/02 A2996 RMK AO2 T01300022
KINJ 210235Z AUTO 16009KT 10SM CLR 13/02 A2997 RMK AO2 T01290020
KINJ 210215Z AUTO 16009KT 10SM CLR 13/02 A2997 RMK AO2 T01260015
KINJ 210155Z AUTO 15009KT 10SM CLR 13/01 A2997 RMK AO2 T01300012
KINJ 210135Z AUTO 15008KT 10SM CLR 13/01 A2999 RMK AO2 T01310010
KINJ 210115Z AUTO 14008KT 10SM CLR 14/01 A2998 RMK AO2 T01350007
KINJ 210055Z AUTO 14008KT 10SM CLR 14/01 A2999 RMK AO2 T01350007
KINJ 210035Z AUTO 14007KT 10SM CLR 13/01 A2999 RMK AO2 T01310011
KINJ 210015Z AUTO 14006KT 10SM CLR 13/01 A2999 RMK AO2 T01330011
KINJ 202355Z AUTO 15005KT 10SM CLR 14/01 A3000 RMK AO2 T01370011 10185 20137
KINJ 202335Z AUTO 14006KT 10SM CLR 15/01 A3000 RMK AO2 T01460010
KINJ 202315Z AUTO 15007KT 10SM CLR 16/01 A3000 RMK AO2 T01560007
KINJ 202255Z AUTO 16007KT 10SM CLR 17/01 A3000 RMK AO2 T01670005
KINJ 202235Z AUTO 17010KT 10SM CLR 17/00 A3000 RMK AO2 T01710001
KINJ 202215Z AUTO 16012KT 10SM CLR 18/00 A3000 RMK AO2 T01760004
KINJ 202155Z AUTO 16012KT 10SM CLR 18/01 A3000 RMK AO2 T01810007
KINJ 202135Z AUTO 16014G18KT 5SM HZ CLR 18/01 A3001 RMK AO2 T01810005
KINJ 202115Z AUTO 18012G15KT 10SM CLR 18/01 A3001 RMK AO2 T01830005
KINJ 202055Z AUTO 15011G17KT 10SM CLR 18/00 A3001 RMK AO2 T01790002
KINJ 202035Z AUTO 18013G26KT 10SM CLR 18/01 A3003 RMK AO2 T01800005
KINJ 202015Z AUTO 19014G19KT 10SM CLR 18/00 A3004 RMK AO2 T01800002
KINJ 201955Z AUTO 20013G19KT 10SM CLR 18/00 A3005 RMK AO2 T01790001
KINJ 201935Z AUTO 17016G20KT 10SM CLR 18/01 A3007 RMK AO2 T01760011
KINJ 201915Z AUTO 17013G20KT 10SM CLR 17/01 A3007 RMK AO2 T01720008
KINJ 201855Z AUTO 19014G22KT 10SM CLR 17/01 A3008 RMK AO2 T01700006
KINJ 201835Z AUTO 17014G19KT 10SM CLR 17/01 A3010 RMK AO2 T01700009
KINJ 201815Z AUTO 16015KT 10SM CLR 17/01 A3012 RMK AO2 T01650014
KINJ 201755Z AUTO 16016KT 10SM CLR 16/01 A3014 RMK AO2 T01630009 10164 20030
KINJ 201735Z AUTO 15014KT 10SM CLR 16/01 A3016 RMK AO2 T01590013
KINJ 201715Z AUTO 18013KT 10SM CLR 16/01 A3017 RMK AO2 T01550014
KINJ 201655Z AUTO 18014KT 10SM CLR 15/01 A3018 RMK AO2 T01500014
KINJ 201635Z AUTO 17011KT 10SM CLR 14/02 A3019 RMK AO2 T01410018
KINJ 201615Z AUTO 17010KT 10SM CLR 14/02 A3020 RMK AO2 LTG DSNT S T01350018
KINJ 201555Z AUTO 17009KT 10SM CLR 12/02 A3021 RMK AO2 T01200018
KINJ 201535Z AUTO 17007KT 10SM CLR 11/02 A3021 RMK AO2 T01110018
KINJ 201515Z AUTO 17007KT 10SM CLR 11/03 A3021 RMK AO2 T01090026
KINJ 201455Z AUTO 17003KT 10SM CLR 09/03 A3021 RMK AO2 T00860028
KINJ 201435Z AUTO 00000KT 10SM CLR 07/02 A3021 RMK AO2 T00720022
KINJ 201415Z AUTO 00000KT 10SM CLR 07/01 A3021 RMK AO2 T00650012
KINJ 201355Z AUTO 00000KT 10SM CLR 05/01 A3021 RMK AO2 T00460013
KINJ 201335Z AUTO 00000KT 10SM CLR 04/00 A3021 RMK AO2 T00380000
KINJ 201315Z AUTO 00000KT 10SM CLR 03/00 A3020 RMK AO2 T00330001
KINJ 201255Z AUTO 00000KT 2 1/2SM HZ CLR 04/00 A3020 RMK AO2 VIS 1V5 T00431004
KINJ 201235Z AUTO 14004KT 2 1/2SM HZ CLR 05/00 A3019 RMK AO2 VIS 2V4 T00481005
KINJ 201215Z AUTO 00000KT 3SM HZ CLR 05/M01 A3019 RMK AO2 T00511007
KINJ 201155Z AUTO 00000KT 2 1/2SM HZ CLR 04/00 A3018 RMK AO2 VIS 1 1/2V5 T00431005 10083 20040
KINJ 201135Z AUTO 00000KT 10SM CLR 04/00 A3018 RMK AO2 T00420000
KINJ 201115Z AUTO 00000KT 10SM CLR 05/00 A3017 RMK AO2 T00461001
KINJ 201055Z AUTO 00000KT 10SM CLR 04/00 A3017 RMK AO2 T00430004
KINJ 201035Z AUTO 00000KT 10SM CLR 05/00 A3018 RMK AO2 T00521003
KINJ 201020Z AUTO 00000KT 10SM CLR 05/00 A3018 RMK AO2 T00500001
KINJ 200955Z AUTO 00000KT 10SM CLR 05/00 A3019 RMK AO2 T00541003
KINJ 200935Z AUTO 13003KT 7SM CLR 06/M01 A3019 RMK AO2 T00641007
KINJ 200915Z AUTO 14003KT 10SM CLR 05/00 A3020 RMK AO2 T00510000
KINJ 200855Z AUTO 14004KT 10SM CLR 07/00 A3020 RMK AO2 T00660000
KINJ 200835Z AUTO 00000KT 10SM CLR 07/00 A3020 RMK AO2 T00670000
KINJ 200815Z AUTO 14003KT 10SM CLR 07/00 A3020 RMK AO2 T00680000
KINJ 200755Z AUTO 00000KT 10SM CLR 07/00 A3021 RMK AO2 T00680000
KINJ 200735Z AUTO 00000KT 10SM CLR 08/00 A3021 RMK AO2 T00801004
KINJ 200715Z AUTO 10003KT 10SM CLR 07/M01 A3021 RMK AO2 T00691006
KINJ 200655Z AUTO 00000KT 10SM CLR 08/M01 A3022 RMK AO2 T00811010
KINJ 200635Z AUTO 00000KT 10SM CLR 07/00 A3022 RMK AO2 T00651001
KINJ 200615Z AUTO 00000KT 10SM CLR 07/00 A3022 RMK AO2 T00651005
KINJ 200555Z AUTO 00000KT 10SM CLR 07/00 A3023 RMK AO2 T00711001 10127 20055 401730016
KINJ 200535Z AUTO 00000KT 10SM CLR 07/00 A3023 RMK AO2 T00670001
KINJ 200515Z AUTO 00000KT 5SM HZ CLR 07/00 A3024 RMK AO2 T00700003
KINJ 200455Z AUTO 09005KT 5SM HZ CLR 08/00 A3024 RMK AO2 T00761001
KINJ 200435Z AUTO 00000KT 10SM CLR 08/00 A3024 RMK AO2 T00830000
KINJ 200415Z AUTO 11003KT 7SM CLR 07/00 A3023 RMK AO2 T00740002
KINJ 200355Z AUTO 11004KT 5SM HZ CLR 06/01 A3023 RMK AO2 T00640005
KINJ 200335Z AUTO 00000KT 5SM HZ CLR 08/00 A3024 RMK AO2 T00750002
KINJ 200315Z AUTO 00000KT 10SM CLR 07/01 A3024 RMK AO2 T00650013
KINJ 200255Z AUTO 00000KT 10SM CLR 07/00 A3024 RMK AO2 T00721003
KINJ 200235Z AUTO 09004KT 10SM CLR 08/00 A3024 RMK AO2 T00790000
KINJ 200215Z AUTO 09004KT 7SM CLR 08/01 A3024 RMK AO2 T00800010
KINJ 200155Z AUTO 09004KT 10SM CLR 10/00 A3024 RMK AO2 T00951003
KINJ 200135Z AUTO 09004KT 10SM CLR 10/00 A3024 RMK AO2 T01011004
KINJ 200115Z AUTO 08005KT 5SM HZ CLR 11/00 A3024 RMK AO2 T01071005
KINJ 200055Z AUTO 08005KT 4SM HZ CLR 11/00 A3024 RMK AO2 T01061002
KINJ 200035Z AUTO 09004KT 4SM HZ CLR 11/00 A3024 RMK AO2 T01100000
KINJ 200015Z AUTO 08004KT 3SM HZ CLR 11/00 A3024 RMK AO2 T01110001
KINJ 192355Z AUTO 08004KT 10SM CLR 12/M01 A3023 RMK AO2 T01241006 10173 20124
KINJ 192335Z AUTO 09003KT 7SM CLR 14/00 A3023 RMK AO2 T01381004
KINJ 192315Z AUTO 09003KT 7SM CLR 15/M01 A3024 RMK AO2 T01521006
KINJ 192255Z AUTO 00000KT 10SM CLR 15/M01 A3024 RMK AO2 T01531015
KINJ 192235Z AUTO 00000KT 10SM CLR 16/M02 A3024 RMK AO2 T01601020
KINJ 192215Z AUTO 00000KT 10SM CLR 16/M02 A3024 RMK AO2 T01561021
KINJ 192155Z AUTO 30003KT 10SM CLR 16/M02 A3024 RMK AO2 T01631018
KINJ 192135Z AUTO 00000KT 7SM CLR 16/M01 A3024 RMK AO2 T01601014
KINJ 192115Z AUTO 00000KT 10SM CLR 16/M02 A3025 RMK AO2 T01601022
KINJ 192055Z AUTO 00000KT 10SM CLR 16/M02 A3026 RMK AO2 T01601025
KINJ 192035Z AUTO 00000KT 10SM CLR 17/M02 A3026 RMK AO2 T01701020
KINJ 192015Z AUTO 04003KT 10SM CLR 17/M02 A3027 RMK AO2 T01721017
KINJ 191955Z AUTO 00000KT 10SM CLR 16/M03 A3028 RMK AO2 T01611027
KINJ 191935Z AUTO 05003KT 10SM CLR 17/M02 A3029 RMK AO2 T01671022
KINJ 191915Z AUTO 06003KT 10SM CLR 17/M02 A3029 RMK AO2 T01671018
KINJ 191855Z AUTO 30004KT 10SM CLR 17/M01 A3030 RMK AO2 T01661009
KINJ 191835Z AUTO 35007KT 10SM CLR 16/M01 A3032 RMK AO2 T01591008
KINJ 191815Z AUTO 03005KT 10SM CLR 16/M01 A3034 RMK AO2 T01631007
KINJ 191755Z AUTO 36008KT 10SM CLR 16/M01 A3035 RMK AO2 T01601015 10164 20016
KINJ 191735Z AUTO 03006KT 10SM CLR 16/M02 A3036 RMK AO2 T01561018
KINJ 191715Z AUTO 05005KT 10SM CLR 15/M02 A3037 RMK AO2 T01521020
KINJ 191655Z AUTO 36005KT 10SM CLR 15/00 A3038 RMK AO2 T01491003
KINJ 191635Z AUTO 30005KT 10SM CLR 14/01 A3039 RMK AO2 T01390009